Time;durP1;ratioP1;P1;durP2;ratioP2;P2;SDS_P1;SDS_P2;PMS_P1;PMS_P2;Temp;Humidity;BMP_temperature;BMP_pressure;BME280_temperature;BME280_humidity;BME280_pressure;Samples;Min_cycle;Max_cycle;Signal;HPM_P1;HPM_P2
2023/12/19 00:01:16;;;;;;;52.40;36.42;;;;;;;;;;5015131;28;20088;-57
2023/12/19 00:03:42;;;;;;;48.67;36.83;;;;;;;;;;5013729;28;20026;-57
2023/12/19 00:06:08;;;;;;;51.85;36.90;;;;;;;;;;5013209;28;20440;-58
2023/12/19 00:08:34;;;;;;;50.10;37.72;;;;;;;;;;5011894;28;20037;-57
2023/12/19 00:11:00;;;;;;;51.13;36.75;;;;;;;;;;5012652;28;20030;-57
2023/12/19 00:13:26;;;;;;;49.70;35.45;;;;;;;;;;5017987;28;20025;-57
2023/12/19 00:15:52;;;;;;;49.60;35.28;;;;;;;;;;5024794;28;20030;-55
2023/12/19 00:18:18;;;;;;;50.20;38.77;;;;;;;;;;5022925;28;20108;-56
2023/12/19 00:20:44;;;;;;;50.65;39.10;;;;;;;;;;5020021;28;20037;-56
2023/12/19 00:23:10;;;;;;;50.45;36.90;;;;;;;;;;5012938;28;20085;-56
2023/12/19 00:25:36;;;;;;;50.27;37.30;;;;;;;;;;5014271;28;20111;-55
2023/12/19 00:28:02;;;;;;;51.20;37.03;;;;;;;;;;5028104;28;20120;-55
2023/12/19 00:30:28;;;;;;;51.20;37.60;;;;;;;;;;5014246;28;20026;-56
2023/12/19 00:32:54;;;;;;;49.67;36.83;;;;;;;;;;5014278;28;20045;-57
2023/12/19 00:35:20;;;;;;;54.33;39.65;;;;;;;;;;5014287;28;20022;-56
2023/12/19 00:37:46;;;;;;;55.78;38.92;;;;;;;;;;5013770;28;20196;-55
2023/12/19 00:40:12;;;;;;;51.63;38.72;;;;;;;;;;5014231;28;20032;-56
2023/12/19 00:42:38;;;;;;;50.20;37.97;;;;;;;;;;5014320;28;20369;-56
2023/12/19 00:45:05;;;;;;;49.80;38.65;;;;;;;;;;5027725;28;20026;-57
2023/12/19 00:47:31;;;;;;;54.88;38.25;;;;;;;;;;5013037;28;20364;-56
2023/12/19 00:49:57;;;;;;;51.10;38.97;;;;;;;;;;5013550;28;20091;-55
2023/12/19 00:52:24;;;;;;;53.47;38.70;;;;;;;;;;5013732;28;20058;-56
2023/12/19 00:54:50;;;;;;;49.35;37.42;;;;;;;;;;5013716;28;20049;-57
2023/12/19 00:57:16;;;;;;;57.90;38.47;;;;;;;;;;5007706;28;20061;-55
2023/12/19 00:59:42;;;;;;;52.45;39.75;;;;;;;;;;5006351;28;20361;-54
2023/12/19 01:02:07;;;;;;;56.20;39.28;;;;;;;;;;5013807;28;20026;-55
2023/12/19 01:04:33;;;;;;;48.00;36.35;;;;;;;;;;5013524;28;20022;-57
2023/12/19 01:06:59;;;;;;;50.38;37.25;;;;;;;;;;5013673;28;20045;-54
2023/12/19 01:09:25;;;;;;;53.70;40.10;;;;;;;;;;5013489;28;20088;-55
2023/12/19 01:11:52;;;;;;;53.83;38.75;;;;;;;;;;5013619;28;20473;-53
2023/12/19 01:14:18;;;;;;;53.03;39.53;;;;;;;;;;5012211;28;20025;-53
2023/12/19 01:16:44;;;;;;;52.97;37.53;;;;;;;;;;5013350;28;20451;-56
2023/12/19 01:19:10;;;;;;;49.80;37.97;;;;;;;;;;5027213;28;20022;-56
2023/12/19 01:21:36;;;;;;;48.70;38.80;;;;;;;;;;5013122;28;20032;-55
2023/12/19 01:24:03;;;;;;;51.90;37.03;;;;;;;;;;5013068;28;20057;-55
2023/12/19 01:26:29;;;;;;;48.10;37.17;;;;;;;;;;5013511;28;20037;-55
2023/12/19 01:28:55;;;;;;;47.57;35.67;;;;;;;;;;5012926;28;20033;-55
2023/12/19 01:31:21;;;;;;;44.38;35.75;;;;;;;;;;5013151;28;20026;-57
2023/12/19 01:33:47;;;;;;;48.85;35.28;;;;;;;;;;5001275;28;20022;-56
2023/12/19 01:36:13;;;;;;;47.57;33.87;;;;;;;;;;5011117;28;20139;-56
2023/12/19 01:38:39;;;;;;;49.43;34.53;;;;;;;;;;5012800;28;20029;-56
2023/12/19 01:41:05;;;;;;;46.67;34.60;;;;;;;;;;5012739;28;20045;-56
2023/12/19 01:43:31;;;;;;;48.00;34.43;;;;;;;;;;5012347;28;20117;-53
2023/12/19 01:45:57;;;;;;;45.70;35.00;;;;;;;;;;5012814;28;20093;-52
2023/12/19 01:48:23;;;;;;;44.90;34.03;;;;;;;;;;5012743;28;20033;-56
2023/12/19 01:50:49;;;;;;;45.20;34.13;;;;;;;;;;5019992;28;20024;-55
2023/12/19 01:53:15;;;;;;;43.63;33.97;;;;;;;;;;5019357;28;20360;-55
2023/12/19 01:55:42;;;;;;;45.60;32.37;;;;;;;;;;5012856;28;20026;-55
2023/12/19 01:58:09;;;;;;;44.87;32.87;;;;;;;;;;5013161;28;20539;-54
2023/12/19 02:00:35;;;;;;;48.70;34.93;;;;;;;;;;5026287;28;20368;-55
2023/12/19 02:03:01;;;;;;;42.97;34.40;;;;;;;;;;5012465;28;20030;-53
2023/12/19 02:05:28;;;;;;;43.45;33.28;;;;;;;;;;5012373;28;20026;-53
2023/12/19 02:07:54;;;;;;;48.37;34.17;;;;;;;;;;5011193;28;20120;-55
2023/12/19 02:10:20;;;;;;;45.17;34.10;;;;;;;;;;5011477;28;20586;-55
2023/12/19 02:12:46;;;;;;;44.50;32.20;;;;;;;;;;5011491;28;20162;-55
2023/12/19 02:15:13;;;;;;;47.10;33.67;;;;;;;;;;5011660;28;20105;-57
2023/12/19 02:17:40;;;;;;;40.17;31.47;;;;;;;;;;5025598;28;20021;-53
2023/12/19 02:20:06;;;;;;;41.80;32.80;;;;;;;;;;5011544;28;20036;-57
2023/12/19 02:22:32;;;;;;;42.70;32.03;;;;;;;;;;5011385;28;20156;-57
2023/12/19 02:24:58;;;;;;;43.90;31.60;;;;;;;;;;5011536;28;20026;-57
2023/12/19 02:27:25;;;;;;;40.50;32.27;;;;;;;;;;5011712;28;20419;-56
2023/12/19 02:29:51;;;;;;;43.77;32.10;;;;;;;;;;5011359;28;20457;-56
2023/12/19 02:32:17;;;;;;;39.53;30.60;;;;;;;;;;5011865;28;20033;-53
2023/12/19 02:34:43;;;;;;;42.85;32.50;;;;;;;;;;5009914;28;20021;-56
2023/12/19 02:37:09;;;;;;;44.00;32.85;;;;;;;;;;5011152;28;20112;-53
2023/12/19 02:39:35;;;;;;;47.77;33.47;;;;;;;;;;5011217;28;20497;-53
2023/12/19 02:42:01;;;;;;;45.45;32.33;;;;;;;;;;5011361;28;20022;-56
2023/12/19 02:44:27;;;;;;;42.53;31.10;;;;;;;;;;5011226;28;20172;-55
2023/12/19 02:46:53;;;;;;;42.23;32.43;;;;;;;;;;5010251;28;20033;-57
2023/12/19 02:49:20;;;;;;;41.30;32.17;;;;;;;;;;5009009;28;20573;-55
2023/12/19 02:51:46;;;;;;;38.80;30.57;;;;;;;;;;5021246;28;20030;-55
2023/12/19 02:54:12;;;;;;;41.13;30.63;;;;;;;;;;5009282;28;20033;-54
2023/12/19 02:56:38;;;;;;;36.20;28.07;;;;;;;;;;5008881;28;20030;-54
2023/12/19 02:59:04;;;;;;;40.77;28.77;;;;;;;;;;5009571;28;20029;-55
2023/12/19 03:01:30;;;;;;;40.27;29.27;;;;;;;;;;5010961;28;20131;-55
2023/12/19 03:03:56;;;;;;;36.77;29.60;;;;;;;;;;5009449;28;20014;-57
2023/12/19 03:06:22;;;;;;;40.97;29.77;;;;;;;;;;5010840;28;20388;-57
2023/12/19 03:08:48;;;;;;;36.50;29.70;;;;;;;;;;5003887;28;20026;-57
2023/12/19 03:11:14;;;;;;;41.00;29.43;;;;;;;;;;5011030;28;20356;-56
2023/12/19 03:13:40;;;;;;;37.60;27.87;;;;;;;;;;5009443;28;20357;-54
2023/12/19 03:16:06;;;;;;;35.40;27.63;;;;;;;;;;5012723;28;20017;-57
2023/12/19 03:18:32;;;;;;;32.97;25.77;;;;;;;;;;5015094;28;20018;-55
2023/12/19 03:20:58;;;;;;;35.57;26.90;;;;;;;;;;5014677;28;20092;-54
2023/12/19 03:23:27;;;;;;;38.88;26.55;;;;;;;;;;5014710;28;20081;-53
2023/12/19 03:25:53;;;;;;;34.50;25.67;;;;;;;;;;5014842;28;20037;-55
2023/12/19 03:28:19;;;;;;;34.63;25.77;;;;;;;;;;5014952;28;20033;-55
2023/12/19 03:30:45;;;;;;;34.57;26.93;;;;;;;;;;5013365;28;20423;-52
2023/12/19 03:33:11;;;;;;;33.80;27.03;;;;;;;;;;5003359;28;20033;-53
2023/12/19 19:23:00;;;;;;;36.88;27.88;;;;;;;;;;4980596;28;20113;-60
2023/12/19 19:25:26;;;;;;;34.63;26.65;;;;;;;;;;4977278;28;20070;-61
2023/12/19 19:27:52;;;;;;;34.80;26.98;;;;;;;;;;4992087;28;20049;-61
2023/12/19 19:30:19;;;;;;;33.75;27.20;;;;;;;;;;4991952;28;20035;-61
2023/12/19 19:32:45;;;;;;;34.58;25.92;;;;;;;;;;4991895;28;20023;-61
2023/12/19 19:35:11;;;;;;;33.88;25.77;;;;;;;;;;4992136;28;20026;-61
2023/12/19 19:37:40;;;;;;;36.22;26.95;;;;;;;;;;4990498;28;20054;-61
2023/12/19 19:40:09;;;;;;;33.63;26.35;;;;;;;;;;4990565;28;20038;-61
2023/12/19 19:42:35;;;;;;;34.15;25.75;;;;;;;;;;4987792;28;20023;-61
2023/12/19 19:45:01;;;;;;;39.10;27.50;;;;;;;;;;4980142;28;20401;-61
2023/12/19 19:47:28;;;;;;;40.80;28.73;;;;;;;;;;4990784;28;20033;-62
2023/12/19 19:49:56;;;;;;;36.33;28.05;;;;;;;;;;4982526;28;20030;-61
2023/12/19 19:52:22;;;;;;;34.53;26.48;;;;;;;;;;4991802;28;20026;-61
2023/12/19 19:54:49;;;;;;;37.08;27.30;;;;;;;;;;4991614;28;20030;-61
2023/12/19 19:57:15;;;;;;;38.70;27.05;;;;;;;;;;4987573;28;20064;-61
2023/12/19 19:59:42;;;;;;;33.58;27.17;;;;;;;;;;4995667;28;20140;-61
2023/12/19 20:02:08;;;;;;;37.83;26.10;;;;;;;;;;4995414;28;20015;-61
2023/12/19 20:04:34;;;;;;;35.55;27.83;;;;;;;;;;4995343;28;20113;-61
2023/12/19 20:07:00;;;;;;;36.78;26.90;;;;;;;;;;4993822;28;20387;-61
2023/12/19 20:09:27;;;;;;;34.45;25.77;;;;;;;;;;4995247;28;20045;-61
2023/12/19 20:11:53;;;;;;;37.83;27.15;;;;;;;;;;4995228;28;20049;-61
2023/12/19 20:14:19;;;;;;;36.28;24.52;;;;;;;;;;4991049;28;20054;-61
2023/12/19 20:16:46;;;;;;;32.75;26.85;;;;;;;;;;4995086;28;20109;-61
2023/12/19 20:19:12;;;;;;;32.17;26.08;;;;;;;;;;4995131;28;20054;-61
2023/12/19 20:21:38;;;;;;;36.28;26.88;;;;;;;;;;4994647;28;20053;-61
2023/12/19 20:24:04;;;;;;;37.78;27.75;;;;;;;;;;5003646;28;20447;-61
2023/12/19 20:26:30;;;;;;;38.47;27.98;;;;;;;;;;5012907;28;20025;-61
2023/12/19 20:28:56;;;;;;;33.17;26.63;;;;;;;;;;5014170;28;20452;-61
2023/12/19 20:31:22;;;;;;;39.10;29.75;;;;;;;;;;5014468;28;20022;-61
2023/12/19 20:33:48;;;;;;;40.45;30.63;;;;;;;;;;5014438;28;20026;-61
2023/12/19 20:36:16;;;;;;;40.42;31.13;;;;;;;;;;5013982;28;20452;-61
2023/12/19 20:38:44;;;;;;;37.53;28.85;;;;;;;;;;5013492;28;20109;-61
2023/12/19 20:41:10;;;;;;;38.67;27.95;;;;;;;;;;5012219;28;20029;-61
2023/12/19 20:43:37;;;;;;;34.85;28.05;;;;;;;;;;5013865;28;20488;-61
2023/12/19 20:46:04;;;;;;;37.42;27.20;;;;;;;;;;5013613;28;20026;-62
2023/12/19 20:48:31;;;;;;;37.08;28.90;;;;;;;;;;5011962;28;20527;-62
2023/12/19 20:50:57;;;;;;;34.35;26.13;;;;;;;;;;5010108;28;20029;-62
2023/12/19 20:53:24;;;;;;;36.03;25.83;;;;;;;;;;5013600;28;20030;-62
2023/12/19 20:55:51;;;;;;;33.60;26.60;;;;;;;;;;5014266;28;20021;-62
2023/12/19 20:58:17;;;;;;;35.30;26.52;;;;;;;;;;5008394;28;20045;-62
2023/12/19 21:00:43;;;;;;;30.90;25.55;;;;;;;;;;5013528;28;20033;-62
2023/12/19 21:03:10;;;;;;;37.65;27.42;;;;;;;;;;5011952;28;20026;-62
2023/12/19 21:05:36;;;;;;;39.00;27.45;;;;;;;;;;5012069;28;20037;-62
2023/12/19 21:08:02;;;;;;;37.47;27.45;;;;;;;;;;5010622;28;20018;-62
2023/12/19 21:10:28;;;;;;;35.13;27.00;;;;;;;;;;5011461;28;20386;-62
2023/12/19 21:12:54;;;;;;;36.28;27.45;;;;;;;;;;5013911;28;20034;-62
2023/12/19 21:15:20;;;;;;;34.97;28.05;;;;;;;;;;5008628;28;20037;-63
2023/12/19 21:17:45;;;;;;;34.20;26.85;;;;;;;;;;5006245;28;20037;-62
2023/12/19 21:20:12;;;;;;;34.33;27.02;;;;;;;;;;5019321;28;20061;-62
2023/12/19 21:22:38;;;;;;;37.28;28.60;;;;;;;;;;5011482;28;20068;-62
2023/12/19 21:25:04;;;;;;;43.85;27.90;;;;;;;;;;5010848;28;20182;-62
2023/12/19 21:27:30;;;;;;;41.72;27.50;;;;;;;;;;5007640;28;20062;-61
2023/12/19 21:29:56;;;;;;;35.75;27.38;;;;;;;;;;5011555;28;20105;-62
2023/12/19 21:32:22;;;;;;;38.10;26.50;;;;;;;;;;5010486;28;20493;-61
2023/12/19 21:34:48;;;;;;;37.15;27.83;;;;;;;;;;5010262;28;20029;-62
2023/12/19 21:37:14;;;;;;;37.53;27.90;;;;;;;;;;5012685;28;20126;-62
2023/12/19 21:39:40;;;;;;;41.75;29.02;;;;;;;;;;5010508;28;20433;-62
2023/12/19 21:42:07;;;;;;;42.45;29.92;;;;;;;;;;5011199;28;20038;-62
2023/12/19 21:44:33;;;;;;;35.40;28.50;;;;;;;;;;5009704;28;20026;-62
2023/12/19 21:46:59;;;;;;;38.65;30.30;;;;;;;;;;5012256;28;20041;-62
2023/12/19 21:49:25;;;;;;;46.70;31.00;;;;;;;;;;5013522;28;20030;-61
2023/12/19 21:51:51;;;;;;;41.45;30.67;;;;;;;;;;5011869;28;20022;-61
2023/12/19 21:54:18;;;;;;;40.78;29.52;;;;;;;;;;5010721;28;20445;-61
2023/12/19 21:56:44;;;;;;;35.65;28.98;;;;;;;;;;5012131;28;20438;-62
2023/12/19 21:59:10;;;;;;;38.95;31.02;;;;;;;;;;5011462;28;20042;-62
2023/12/19 22:01:36;;;;;;;39.30;28.85;;;;;;;;;;5001783;28;20514;-62
2023/12/19 22:04:03;;;;;;;37.30;29.38;;;;;;;;;;5011465;28;20117;-62
2023/12/19 22:06:29;;;;;;;40.50;29.58;;;;;;;;;;5011699;28;20382;-61
2023/12/19 22:08:55;;;;;;;44.85;30.77;;;;;;;;;;5009200;28;20042;-62
2023/12/19 22:11:21;;;;;;;40.03;29.90;;;;;;;;;;5011598;28;20022;-62
2023/12/19 22:13:47;;;;;;;39.88;29.73;;;;;;;;;;5009377;28;20034;-62
2023/12/19 22:16:20;;;;;;;46.63;30.40;;;;;;;;;;5010843;28;20387;-61
2023/12/19 22:18:46;;;;;;;39.25;29.70;;;;;;;;;;5011242;28;20403;-62
2023/12/19 22:21:19;;;;;;;41.55;30.02;;;;;;;;;;5011381;28;20030;-61
2023/12/19 22:23:45;;;;;;;42.15;31.08;;;;;;;;;;5007153;28;20447;-62
2023/12/19 22:26:11;;;;;;;53.33;35.45;;;;;;;;;;5011214;28;20044;-62
2023/12/19 22:28:39;;;;;;;50.30;34.92;;;;;;;;;;5025042;28;20050;-61
2023/12/19 22:31:05;;;;;;;49.92;34.97;;;;;;;;;;5013015;28;20022;-62
2023/12/19 22:33:31;;;;;;;46.20;33.33;;;;;;;;;;5008983;28;20112;-62
2023/12/19 22:35:57;;;;;;;42.75;30.73;;;;;;;;;;5010900;28;20384;-62
2023/12/19 22:38:23;;;;;;;47.88;31.38;;;;;;;;;;5009691;28;20034;-62
2023/12/19 22:40:51;;;;;;;41.03;31.02;;;;;;;;;;5008782;28;20519;-61
2023/12/19 22:43:18;;;;;;;38.72;29.30;;;;;;;;;;5009218;28;20033;-61
2023/12/19 22:45:44;;;;;;;39.67;29.55;;;;;;;;;;5006624;28;20181;-62
2023/12/19 22:48:10;;;;;;;40.97;29.52;;;;;;;;;;5010283;28;20113;-62
2023/12/19 22:50:36;;;;;;;39.92;28.40;;;;;;;;;;5010695;28;20057;-62
2023/12/19 22:53:04;;;;;;;36.45;29.17;;;;;;;;;;5010572;28;20029;-61
2023/12/19 22:55:36;;;;;;;46.47;31.85;;;;;;;;;;5010858;28;20030;-62
2023/12/19 22:58:02;;;;;;;42.78;31.85;;;;;;;;;;5009593;28;20037;-62
2023/12/19 23:00:28;;;;;;;45.85;32.63;;;;;;;;;;5010557;28;20168;-62
2023/12/19 23:02:54;;;;;;;46.08;36.22;;;;;;;;;;5010987;28;20455;-62
2023/12/19 23:05:20;;;;;;;47.65;36.00;;;;;;;;;;5012203;28;20038;-62
2023/12/19 23:07:47;;;;;;;51.33;36.65;;;;;;;;;;5010433;28;20379;-62
2023/12/19 23:10:14;;;;;;;58.13;39.42;;;;;;;;;;5010070;28;20046;-62
2023/12/19 23:12:43;;;;;;;48.67;39.13;;;;;;;;;;5009742;28;20448;-62
2023/12/19 23:15:09;;;;;;;49.00;38.28;;;;;;;;;;5011981;28;20038;-62
2023/12/19 23:17:35;;;;;;;55.58;40.53;;;;;;;;;;5010000;28;20113;-62
2023/12/19 23:20:01;;;;;;;52.95;40.42;;;;;;;;;;5010056;28;20026;-62
2023/12/19 23:22:27;;;;;;;52.15;39.88;;;;;;;;;;5008471;28;20032;-62
2023/12/19 23:24:53;;;;;;;61.58;42.15;;;;;;;;;;5011591;28;20125;-62
2023/12/19 23:27:20;;;;;;;51.70;41.15;;;;;;;;;;5011127;28;20108;-62
2023/12/19 23:29:46;;;;;;;49.00;40.08;;;;;;;;;;5010848;28;20038;-62
2023/12/19 23:32:12;;;;;;;49.13;38.75;;;;;;;;;;5012024;28;20037;-62
2023/12/19 23:34:38;;;;;;;49.88;40.63;;;;;;;;;;5015581;28;20030;-62
2023/12/19 23:37:05;;;;;;;52.15;39.13;;;;;;;;;;5015920;28;20056;-62
2023/12/19 23:39:31;;;;;;;51.75;38.70;;;;;;;;;;5014691;28;20476;-62
2023/12/19 23:41:57;;;;;;;48.55;38.42;;;;;;;;;;5013856;28;20037;-62
2023/12/19 23:44:23;;;;;;;49.03;39.00;;;;;;;;;;5014880;28;20034;-62
2023/12/19 23:46:51;;;;;;;53.28;39.47;;;;;;;;;;5015052;28;20325;-62
2023/12/19 23:49:17;;;;;;;58.05;40.92;;;;;;;;;;5012789;28;20042;-62
2023/12/19 23:51:43;;;;;;;51.33;39.78;;;;;;;;;;5013872;28;20038;-62
2023/12/19 23:54:09;;;;;;;51.72;38.42;;;;;;;;;;5014246;28;20026;-62
2023/12/19 23:56:35;;;;;;;52.97;40.47;;;;;;;;;;5015029;28;20041;-62
2023/12/19 23:59:01;;;;;;;50.40;39.03;;;;;;;;;;5013999;28;20026;-62
